sensor_id;sensor_type;location;lat;lon;timestamp;P1;durP1;ratioP1;P2;durP2;ratioP2
21663;SDS011;10993;52.510;13.456;2023-07-09T00:03:47;7.15;;;3.00;;
21663;SDS011;10993;52.510;13.456;2023-07-09T00:08:52;6.03;;;2.92;;
21663;SDS011;10993;52.510;13.456;2023-07-09T00:13:53;4.97;;;2.55;;
21663;SDS011;10993;52.510;13.456;2023-07-09T00:18:53;6.17;;;2.43;;
21663;SDS011;10993;52.510;13.456;2023-07-09T00:23:55;4.50;;;2.17;;
21663;SDS011;10993;52.510;13.456;2023-07-09T00:28:56;3.47;;;2.00;;
21663;SDS011;10993;52.510;13.456;2023-07-09T00:33:56;4.17;;;2.00;;
21663;SDS011;10993;52.510;13.456;2023-07-09T00:38:58;4.22;;;2.40;;
21663;SDS011;10993;52.510;13.456;2023-07-09T00:44:20;5.03;;;2.47;;
21663;SDS011;10993;52.510;13.456;2023-07-09T00:49:29;4.65;;;2.33;;
21663;SDS011;10993;52.510;13.456;2023-07-09T00:54:34;4.45;;;2.38;;
21663;SDS011;10993;52.510;13.456;2023-07-09T00:59:38;6.47;;;2.58;;
21663;SDS011;10993;52.510;13.456;2023-07-09T01:04:40;4.50;;;2.17;;
21663;SDS011;10993;52.510;13.456;2023-07-09T01:09:42;4.45;;;2.33;;
21663;SDS011;10993;52.510;13.456;2023-07-09T01:14:43;3.67;;;1.90;;
21663;SDS011;10993;52.510;13.456;2023-07-09T01:19:44;4.65;;;2.10;;
21663;SDS011;10993;52.510;13.456;2023-07-09T01:24:52;4.57;;;2.28;;
21663;SDS011;10993;52.510;13.456;2023-07-09T01:30:03;5.25;;;2.15;;
21663;SDS011;10993;52.510;13.456;2023-07-09T01:35:07;3.80;;;2.33;;
21663;SDS011;10993;52.510;13.456;2023-07-09T01:40:09;4.70;;;2.20;;
21663;SDS011;10993;52.510;13.456;2023-07-09T01:45:12;4.72;;;2.30;;
21663;SDS011;10993;52.510;13.456;2023-07-09T01:50:13;4.18;;;2.10;;
21663;SDS011;10993;52.510;13.456;2023-07-09T01:55:17;4.38;;;2.15;;
21663;SDS011;10993;52.510;13.456;2023-07-09T02:00:19;7.07;;;2.50;;
21663;SDS011;10993;52.510;13.456;2023-07-09T02:05:19;4.57;;;2.50;;
21663;SDS011;10993;52.510;13.456;2023-07-09T02:10:21;4.20;;;2.47;;
21663;SDS011;10993;52.510;13.456;2023-07-09T02:15:22;4.97;;;2.10;;
21663;SDS011;10993;52.510;13.456;2023-07-09T02:20:22;3.97;;;2.30;;
21663;SDS011;10993;52.510;13.456;2023-07-09T02:25:24;4.45;;;2.50;;
21663;SDS011;10993;52.510;13.456;2023-07-09T02:30:24;5.93;;;2.72;;
21663;SDS011;10993;52.510;13.456;2023-07-09T02:35:24;4.53;;;2.50;;
21663;SDS011;10993;52.510;13.456;2023-07-09T02:40:26;4.27;;;2.23;;
21663;SDS011;10993;52.510;13.456;2023-07-09T02:45:26;5.55;;;2.60;;
21663;SDS011;10993;52.510;13.456;2023-07-09T02:50:27;5.55;;;2.40;;
21663;SDS011;10993;52.510;13.456;2023-07-09T02:55:30;5.30;;;2.67;;
21663;SDS011;10993;52.510;13.456;2023-07-09T03:00:30;4.88;;;2.70;;
21663;SDS011;10993;52.510;13.456;2023-07-09T03:05:30;5.25;;;2.95;;
21663;SDS011;10993;52.510;13.456;2023-07-09T03:10:34;4.30;;;2.22;;
21663;SDS011;10993;52.510;13.456;2023-07-09T03:15:35;3.67;;;2.17;;
21663;SDS011;10993;52.510;13.456;2023-07-09T03:20:35;8.23;;;2.57;;
21663;SDS011;10993;52.510;13.456;2023-07-09T03:25:41;8.18;;;2.47;;
21663;SDS011;10993;52.510;13.456;2023-07-09T03:30:42;4.00;;;2.63;;
21663;SDS011;10993;52.510;13.456;2023-07-09T03:35:43;7.45;;;2.90;;
21663;SDS011;10993;52.510;13.456;2023-07-09T03:40:44;5.20;;;2.63;;
21663;SDS011;10993;52.510;13.456;2023-07-09T03:45:45;5.13;;;2.58;;
21663;SDS011;10993;52.510;13.456;2023-07-09T03:50:47;4.35;;;2.45;;
21663;SDS011;10993;52.510;13.456;2023-07-09T03:55:52;4.15;;;2.30;;
21663;SDS011;10993;52.510;13.456;2023-07-09T04:00:54;4.05;;;2.25;;
21663;SDS011;10993;52.510;13.456;2023-07-09T04:05:55;4.05;;;2.30;;
21663;SDS011;10993;52.510;13.456;2023-07-09T04:11:00;3.00;;;1.87;;
21663;SDS011;10993;52.510;13.456;2023-07-09T04:16:02;3.80;;;1.80;;
21663;SDS011;10993;52.510;13.456;2023-07-09T04:21:02;3.63;;;2.20;;
21663;SDS011;10993;52.510;13.456;2023-07-09T04:26:05;2.90;;;1.50;;
21663;SDS011;10993;52.510;13.456;2023-07-09T04:31:09;4.93;;;2.08;;
21663;SDS011;10993;52.510;13.456;2023-07-09T04:36:09;4.00;;;1.77;;
21663;SDS011;10993;52.510;13.456;2023-07-09T04:41:14;4.35;;;2.10;;
21663;SDS011;10993;52.510;13.456;2023-07-09T04:46:14;5.53;;;2.25;;
21663;SDS011;10993;52.510;13.456;2023-07-09T04:51:15;3.97;;;2.10;;
21663;SDS011;10993;52.510;13.456;2023-07-09T04:56:17;3.65;;;1.90;;
21663;SDS011;10993;52.510;13.456;2023-07-09T05:01:17;3.80;;;1.67;;
21663;SDS011;10993;52.510;13.456;2023-07-09T05:06:18;3.17;;;2.00;;
21663;SDS011;10993;52.510;13.456;2023-07-09T05:11:19;4.57;;;2.07;;
21663;SDS011;10993;52.510;13.456;2023-07-09T05:16:20;4.30;;;2.00;;
21663;SDS011;10993;52.510;13.456;2023-07-09T05:21:20;5.30;;;1.80;;
21663;SDS011;10993;52.510;13.456;2023-07-09T05:26:22;3.90;;;1.83;;
21663;SDS011;10993;52.510;13.456;2023-07-09T05:31:22;3.88;;;2.00;;
21663;SDS011;10993;52.510;13.456;2023-07-09T05:36:22;3.00;;;1.73;;
21663;SDS011;10993;52.510;13.456;2023-07-09T05:41:24;4.13;;;1.80;;
21663;SDS011;10993;52.510;13.456;2023-07-09T05:46:25;4.40;;;1.90;;
21663;SDS011;10993;52.510;13.456;2023-07-09T05:51:25;3.15;;;1.88;;
21663;SDS011;10993;52.510;13.456;2023-07-09T05:56:28;2.85;;;1.58;;
21663;SDS011;10993;52.510;13.456;2023-07-09T06:01:28;2.88;;;1.75;;
21663;SDS011;10993;52.510;13.456;2023-07-09T06:06:29;4.07;;;1.70;;
21663;SDS011;10993;52.510;13.456;2023-07-09T06:11:30;4.07;;;1.67;;
21663;SDS011;10993;52.510;13.456;2023-07-09T06:16:31;3.13;;;1.73;;
21663;SDS011;10993;52.510;13.456;2023-07-09T06:21:31;5.10;;;1.80;;
21663;SDS011;10993;52.510;13.456;2023-07-09T06:26:32;2.67;;;1.63;;
21663;SDS011;10993;52.510;13.456;2023-07-09T06:31:33;4.63;;;1.73;;
21663;SDS011;10993;52.510;13.456;2023-07-09T06:36:33;5.37;;;1.90;;
21663;SDS011;10993;52.510;13.456;2023-07-09T06:41:35;4.83;;;2.03;;
21663;SDS011;10993;52.510;13.456;2023-07-09T06:46:39;3.53;;;1.90;;
21663;SDS011;10993;52.510;13.456;2023-07-09T06:51:39;3.47;;;1.75;;
21663;SDS011;10993;52.510;13.456;2023-07-09T06:56:41;3.03;;;1.63;;
21663;SDS011;10993;52.510;13.456;2023-07-09T07:01:41;2.90;;;1.90;;
21663;SDS011;10993;52.510;13.456;2023-07-09T07:06:42;7.43;;;1.80;;
21663;SDS011;10993;52.510;13.456;2023-07-09T07:11:43;4.27;;;2.00;;
21663;SDS011;10993;52.510;13.456;2023-07-09T07:16:43;3.83;;;1.83;;
21663;SDS011;10993;52.510;13.456;2023-07-09T07:21:44;3.07;;;1.90;;
21663;SDS011;10993;52.510;13.456;2023-07-09T07:26:45;3.85;;;1.88;;
21663;SDS011;10993;52.510;13.456;2023-07-09T07:31:46;3.67;;;1.80;;
21663;SDS011;10993;52.510;13.456;2023-07-09T07:36:46;2.80;;;1.60;;
21663;SDS011;10993;52.510;13.456;2023-07-09T07:41:48;3.92;;;2.03;;
21663;SDS011;10993;52.510;13.456;2023-07-09T07:46:50;4.78;;;1.92;;
21663;SDS011;10993;52.510;13.456;2023-07-09T07:51:51;4.13;;;1.90;;
21663;SDS011;10993;52.510;13.456;2023-07-09T07:56:52;7.30;;;2.00;;
21663;SDS011;10993;52.510;13.456;2023-07-09T08:01:53;5.07;;;2.17;;
21663;SDS011;10993;52.510;13.456;2023-07-09T08:06:53;4.83;;;1.83;;
21663;SDS011;10993;52.510;13.456;2023-07-09T08:11:55;4.30;;;2.40;;
21663;SDS011;10993;52.510;13.456;2023-07-09T08:16:55;3.28;;;1.88;;
21663;SDS011;10993;52.510;13.456;2023-07-09T08:21:56;3.07;;;2.00;;
21663;SDS011;10993;52.510;13.456;2023-07-09T08:26:57;4.00;;;2.20;;
21663;SDS011;10993;52.510;13.456;2023-07-09T08:32:00;3.15;;;2.10;;
21663;SDS011;10993;52.510;13.456;2023-07-09T08:37:00;3.93;;;1.67;;
21663;SDS011;10993;52.510;13.456;2023-07-09T08:42:04;3.63;;;1.90;;
21663;SDS011;10993;52.510;13.456;2023-07-09T08:47:07;3.65;;;1.98;;
21663;SDS011;10993;52.510;13.456;2023-07-09T08:52:18;3.38;;;1.80;;
21663;SDS011;10993;52.510;13.456;2023-07-09T08:57:27;3.83;;;2.00;;
21663;SDS011;10993;52.510;13.456;2023-07-09T09:02:33;2.70;;;1.52;;
21663;SDS011;10993;52.510;13.456;2023-07-09T09:07:39;3.70;;;1.80;;
21663;SDS011;10993;52.510;13.456;2023-07-09T09:12:44;5.50;;;2.40;;
21663;SDS011;10993;52.510;13.456;2023-07-09T09:17:55;3.67;;;2.35;;
21663;SDS011;10993;52.510;13.456;2023-07-09T09:23:12;2.40;;;1.65;;
21663;SDS011;10993;52.510;13.456;2023-07-09T09:28:16;3.85;;;1.90;;
21663;SDS011;10993;52.510;13.456;2023-07-09T09:33:17;3.08;;;1.60;;
21663;SDS011;10993;52.510;13.456;2023-07-09T09:38:21;4.57;;;1.95;;
21663;SDS011;10993;52.510;13.456;2023-07-09T09:43:23;4.15;;;2.08;;
21663;SDS011;10993;52.510;13.456;2023-07-09T09:48:26;3.60;;;1.92;;
21663;SDS011;10993;52.510;13.456;2023-07-09T09:53:29;2.80;;;1.70;;
21663;SDS011;10993;52.510;13.456;2023-07-09T09:58:39;2.60;;;1.63;;
21663;SDS011;10993;52.510;13.456;2023-07-09T10:03:40;4.75;;;2.15;;
21663;SDS011;10993;52.510;13.456;2023-07-09T10:08:43;4.07;;;1.80;;
21663;SDS011;10993;52.510;13.456;2023-07-09T10:13:59;4.38;;;2.10;;
21663;SDS011;10993;52.510;13.456;2023-07-09T10:19:05;4.03;;;2.40;;
21663;SDS011;10993;52.510;13.456;2023-07-09T10:24:25;3.50;;;1.98;;
21663;SDS011;10993;52.510;13.456;2023-07-09T10:29:44;2.72;;;1.80;;
21663;SDS011;10993;52.510;13.456;2023-07-09T10:34:54;3.20;;;1.90;;
21663;SDS011;10993;52.510;13.456;2023-07-09T10:40:01;7.60;;;2.60;;
21663;SDS011;10993;52.510;13.456;2023-07-09T10:45:10;6.32;;;3.28;;
21663;SDS011;10993;52.510;13.456;2023-07-09T10:50:14;4.20;;;2.20;;
21663;SDS011;10993;52.510;13.456;2023-07-09T10:55:20;2.42;;;1.75;;
21663;SDS011;10993;52.510;13.456;2023-07-09T11:00:30;3.25;;;2.05;;
21663;SDS011;10993;52.510;13.456;2023-07-09T11:05:34;4.32;;;2.45;;
21663;SDS011;10993;52.510;13.456;2023-07-09T11:10:36;3.28;;;2.10;;
21663;SDS011;10993;52.510;13.456;2023-07-09T11:15:42;6.25;;;2.30;;
21663;SDS011;10993;52.510;13.456;2023-07-09T11:20:46;5.15;;;2.30;;
21663;SDS011;10993;52.510;13.456;2023-07-09T11:25:48;5.40;;;2.50;;
21663;SDS011;10993;52.510;13.456;2023-07-09T11:31:06;6.13;;;4.30;;
21663;SDS011;10993;52.510;13.456;2023-07-09T11:36:11;7.22;;;5.03;;
21663;SDS011;10993;52.510;13.456;2023-07-09T11:41:24;9.20;;;5.97;;
21663;SDS011;10993;52.510;13.456;2023-07-09T11:46:28;6.85;;;4.97;;
21663;SDS011;10993;52.510;13.456;2023-07-09T11:51:32;7.43;;;5.07;;
21663;SDS011;10993;52.510;13.456;2023-07-09T11:56:38;5.10;;;3.22;;
21663;SDS011;10993;52.510;13.456;2023-07-09T12:01:42;5.88;;;3.70;;
21663;SDS011;10993;52.510;13.456;2023-07-09T12:06:45;5.55;;;2.90;;
21663;SDS011;10993;52.510;13.456;2023-07-09T12:11:47;4.35;;;2.78;;
21663;SDS011;10993;52.510;13.456;2023-07-09T12:16:50;4.25;;;2.78;;
21663;SDS011;10993;52.510;13.456;2023-07-09T12:21:55;4.28;;;2.72;;
21663;SDS011;10993;52.510;13.456;2023-07-09T12:26:58;6.18;;;2.88;;
21663;SDS011;10993;52.510;13.456;2023-07-09T12:32:02;5.55;;;3.05;;
21663;SDS011;10993;52.510;13.456;2023-07-09T12:37:10;4.75;;;3.10;;
21663;SDS011;10993;52.510;13.456;2023-07-09T12:42:14;4.22;;;2.72;;
21663;SDS011;10993;52.510;13.456;2023-07-09T12:47:18;4.78;;;2.83;;
21663;SDS011;10993;52.510;13.456;2023-07-09T12:52:21;4.85;;;2.60;;
21663;SDS011;10993;52.510;13.456;2023-07-09T12:57:22;3.65;;;2.25;;
21663;SDS011;10993;52.510;13.456;2023-07-09T13:02:25;3.80;;;2.50;;
21663;SDS011;10993;52.510;13.456;2023-07-09T13:07:29;3.85;;;2.30;;
21663;SDS011;10993;52.510;13.456;2023-07-09T13:12:38;3.85;;;2.53;;
21663;SDS011;10993;52.510;13.456;2023-07-09T13:17:41;3.78;;;2.60;;
21663;SDS011;10993;52.510;13.456;2023-07-09T13:22:42;3.97;;;2.65;;
21663;SDS011;10993;52.510;13.456;2023-07-09T13:27:43;4.30;;;3.10;;
21663;SDS011;10993;52.510;13.456;2023-07-09T13:32:48;6.05;;;2.67;;
21663;SDS011;10993;52.510;13.456;2023-07-09T13:37:49;4.13;;;2.58;;
21663;SDS011;10993;52.510;13.456;2023-07-09T13:42:49;5.10;;;2.77;;
21663;SDS011;10993;52.510;13.456;2023-07-09T13:47:51;4.83;;;3.13;;
21663;SDS011;10993;52.510;13.456;2023-07-09T13:52:52;4.45;;;2.70;;
21663;SDS011;10993;52.510;13.456;2023-07-09T13:57:52;4.50;;;3.03;;
21663;SDS011;10993;52.510;13.456;2023-07-09T14:02:54;5.00;;;2.80;;
21663;SDS011;10993;52.510;13.456;2023-07-09T14:07:55;5.10;;;3.00;;
21663;SDS011;10993;52.510;13.456;2023-07-09T14:12:56;3.92;;;2.53;;
21663;SDS011;10993;52.510;13.456;2023-07-09T14:17:58;5.07;;;2.33;;
21663;SDS011;10993;52.510;13.456;2023-07-09T14:22:58;4.30;;;2.60;;
21663;SDS011;10993;52.510;13.456;2023-07-09T14:27:59;4.93;;;2.83;;
21663;SDS011;10993;52.510;13.456;2023-07-09T14:33:00;4.60;;;2.83;;
21663;SDS011;10993;52.510;13.456;2023-07-09T14:38:01;4.75;;;2.88;;
21663;SDS011;10993;52.510;13.456;2023-07-09T14:43:01;6.17;;;3.17;;
21663;SDS011;10993;52.510;13.456;2023-07-09T14:48:07;5.00;;;2.63;;
21663;SDS011;10993;52.510;13.456;2023-07-09T14:53:13;3.42;;;2.35;;
21663;SDS011;10993;52.510;13.456;2023-07-09T14:58:15;4.80;;;3.13;;
21663;SDS011;10993;52.510;13.456;2023-07-09T15:03:20;4.72;;;2.80;;
21663;SDS011;10993;52.510;13.456;2023-07-09T15:08:22;4.82;;;2.67;;
21663;SDS011;10993;52.510;13.456;2023-07-09T15:13:26;7.95;;;3.05;;
21663;SDS011;10993;52.510;13.456;2023-07-09T15:18:30;5.38;;;2.58;;
21663;SDS011;10993;52.510;13.456;2023-07-09T15:23:33;4.10;;;2.45;;
21663;SDS011;10993;52.510;13.456;2023-07-09T15:28:39;3.80;;;2.60;;
21663;SDS011;10993;52.510;13.456;2023-07-09T15:33:41;4.50;;;2.88;;
21663;SDS011;10993;52.510;13.456;2023-07-09T15:38:41;4.97;;;2.65;;
21663;SDS011;10993;52.510;13.456;2023-07-09T15:43:43;7.28;;;2.53;;
21663;SDS011;10993;52.510;13.456;2023-07-09T15:48:45;4.70;;;2.75;;
21663;SDS011;10993;52.510;13.456;2023-07-09T15:53:47;4.35;;;2.90;;
21663;SDS011;10993;52.510;13.456;2023-07-09T15:58:47;4.28;;;2.67;;
21663;SDS011;10993;52.510;13.456;2023-07-09T16:03:50;5.03;;;3.22;;
21663;SDS011;10993;52.510;13.456;2023-07-09T16:08:52;5.88;;;3.17;;
21663;SDS011;10993;52.510;13.456;2023-07-09T16:13:52;7.13;;;3.97;;
21663;SDS011;10993;52.510;13.456;2023-07-09T16:18:55;5.05;;;3.50;;
21663;SDS011;10993;52.510;13.456;2023-07-09T16:23:56;6.72;;;2.88;;
21663;SDS011;10993;52.510;13.456;2023-07-09T16:28:57;6.45;;;3.10;;
21663;SDS011;10993;52.510;13.456;2023-07-09T16:33:59;5.57;;;3.43;;
21663;SDS011;10993;52.510;13.456;2023-07-09T16:38:59;4.72;;;2.97;;
21663;SDS011;10993;52.510;13.456;2023-07-09T16:44:00;4.43;;;3.38;;
21663;SDS011;10993;52.510;13.456;2023-07-09T16:49:03;5.80;;;3.10;;
21663;SDS011;10993;52.510;13.456;2023-07-09T16:54:21;5.18;;;3.33;;
21663;SDS011;10993;52.510;13.456;2023-07-09T16:59:22;4.35;;;2.88;;
21663;SDS011;10993;52.510;13.456;2023-07-09T17:04:24;5.20;;;3.28;;
21663;SDS011;10993;52.510;13.456;2023-07-09T17:09:30;5.22;;;2.95;;
21663;SDS011;10993;52.510;13.456;2023-07-09T17:14:31;5.80;;;2.90;;
21663;SDS011;10993;52.510;13.456;2023-07-09T17:19:34;6.72;;;3.55;;
21663;SDS011;10993;52.510;13.456;2023-07-09T17:24:35;6.28;;;4.07;;
21663;SDS011;10993;52.510;13.456;2023-07-09T17:29:35;5.50;;;2.93;;
21663;SDS011;10993;52.510;13.456;2023-07-09T17:34:37;5.50;;;3.23;;
21663;SDS011;10993;52.510;13.456;2023-07-09T17:39:37;5.28;;;3.13;;
21663;SDS011;10993;52.510;13.456;2023-07-09T17:44:39;6.60;;;2.97;;
21663;SDS011;10993;52.510;13.456;2023-07-09T17:49:40;4.82;;;2.75;;
21663;SDS011;10993;52.510;13.456;2023-07-09T17:54:42;9.70;;;2.92;;
21663;SDS011;10993;52.510;13.456;2023-07-09T17:59:43;3.60;;;2.58;;
21663;SDS011;10993;52.510;13.456;2023-07-09T18:04:45;7.15;;;2.90;;
21663;SDS011;10993;52.510;13.456;2023-07-09T18:09:45;5.45;;;3.15;;
21663;SDS011;10993;52.510;13.456;2023-07-09T18:14:46;5.68;;;3.00;;
21663;SDS011;10993;52.510;13.456;2023-07-09T18:19:51;4.55;;;2.72;;
21663;SDS011;10993;52.510;13.456;2023-07-09T18:24:51;4.68;;;2.88;;
21663;SDS011;10993;52.510;13.456;2023-07-09T18:29:52;7.75;;;5.38;;
21663;SDS011;10993;52.510;13.456;2023-07-09T18:34:56;5.90;;;3.42;;
21663;SDS011;10993;52.510;13.456;2023-07-09T18:39:58;5.25;;;3.20;;
21663;SDS011;10993;52.510;13.456;2023-07-09T18:44:59;4.90;;;2.90;;
21663;SDS011;10993;52.510;13.456;2023-07-09T18:50:01;5.87;;;3.30;;
21663;SDS011;10993;52.510;13.456;2023-07-09T18:55:01;6.60;;;3.90;;
21663;SDS011;10993;52.510;13.456;2023-07-09T19:00:02;10.10;;;4.60;;
21663;SDS011;10993;52.510;13.456;2023-07-09T19:05:07;6.55;;;3.45;;
21663;SDS011;10993;52.510;13.456;2023-07-09T19:10:13;5.32;;;3.25;;
21663;SDS011;10993;52.510;13.456;2023-07-09T19:15:16;5.72;;;3.40;;
21663;SDS011;10993;52.510;13.456;2023-07-09T19:20:18;6.57;;;4.32;;
21663;SDS011;10993;52.510;13.456;2023-07-09T19:25:21;6.82;;;3.92;;
21663;SDS011;10993;52.510;13.456;2023-07-09T19:30:23;5.72;;;3.70;;
21663;SDS011;10993;52.510;13.456;2023-07-09T19:35:26;7.95;;;3.95;;
21663;SDS011;10993;52.510;13.456;2023-07-09T19:40:28;8.25;;;3.90;;
21663;SDS011;10993;52.510;13.456;2023-07-09T19:45:29;8.02;;;3.95;;
21663;SDS011;10993;52.510;13.456;2023-07-09T19:50:35;7.30;;;4.13;;
21663;SDS011;10993;52.510;13.456;2023-07-09T19:55:38;5.93;;;3.83;;
21663;SDS011;10993;52.510;13.456;2023-07-09T20:00:38;7.72;;;3.90;;
21663;SDS011;10993;52.510;13.456;2023-07-09T20:05:40;8.43;;;4.57;;
21663;SDS011;10993;52.510;13.456;2023-07-09T20:10:40;11.68;;;4.13;;
21663;SDS011;10993;52.510;13.456;2023-07-09T20:15:42;7.20;;;3.88;;
21663;SDS011;10993;52.510;13.456;2023-07-09T20:20:43;7.55;;;3.95;;
21663;SDS011;10993;52.510;13.456;2023-07-09T20:25:46;5.05;;;3.63;;
21663;SDS011;10993;52.510;13.456;2023-07-09T20:30:47;5.82;;;3.05;;
21663;SDS011;10993;52.510;13.456;2023-07-09T20:35:50;6.10;;;3.28;;
21663;SDS011;10993;52.510;13.456;2023-07-09T20:40:51;5.72;;;3.28;;
21663;SDS011;10993;52.510;13.456;2023-07-09T20:45:52;5.82;;;3.45;;
21663;SDS011;10993;52.510;13.456;2023-07-09T20:50:54;6.15;;;3.22;;
21663;SDS011;10993;52.510;13.456;2023-07-09T20:55:57;7.97;;;4.35;;
21663;SDS011;10993;52.510;13.456;2023-07-09T21:00:58;7.70;;;3.67;;
21663;SDS011;10993;52.510;13.456;2023-07-09T21:05:59;6.63;;;3.60;;
21663;SDS011;10993;52.510;13.456;2023-07-09T21:11:00;6.95;;;4.10;;
21663;SDS011;10993;52.510;13.456;2023-07-09T21:16:00;6.47;;;3.65;;
21663;SDS011;10993;52.510;13.456;2023-07-09T21:21:03;7.28;;;3.75;;
21663;SDS011;10993;52.510;13.456;2023-07-09T21:26:04;5.85;;;3.42;;
21663;SDS011;10993;52.510;13.456;2023-07-09T21:31:04;6.37;;;3.47;;
21663;SDS011;10993;52.510;13.456;2023-07-09T21:36:06;4.78;;;3.00;;
21663;SDS011;10993;52.510;13.456;2023-07-09T21:41:07;4.30;;;2.67;;
21663;SDS011;10993;52.510;13.456;2023-07-09T21:46:07;4.70;;;2.97;;
21663;SDS011;10993;52.510;13.456;2023-07-09T21:51:23;5.25;;;2.97;;
21663;SDS011;10993;52.510;13.456;2023-07-09T21:56:24;6.55;;;3.28;;
21663;SDS011;10993;52.510;13.456;2023-07-09T22:01:24;5.20;;;3.00;;
21663;SDS011;10993;52.510;13.456;2023-07-09T22:06:26;5.20;;;3.47;;
21663;SDS011;10993;52.510;13.456;2023-07-09T22:11:26;5.20;;;3.47;;
21663;SDS011;10993;52.510;13.456;2023-07-09T22:16:28;5.95;;;3.17;;
21663;SDS011;10993;52.510;13.456;2023-07-09T22:21:30;5.90;;;3.37;;
21663;SDS011;10993;52.510;13.456;2023-07-09T22:26:31;4.35;;;2.92;;
21663;SDS011;10993;52.510;13.456;2023-07-09T22:31:31;6.82;;;3.20;;
21663;SDS011;10993;52.510;13.456;2023-07-09T22:36:34;7.15;;;3.47;;
21663;SDS011;10993;52.510;13.456;2023-07-09T22:41:34;6.13;;;3.42;;
21663;SDS011;10993;52.510;13.456;2023-07-09T22:46:34;7.60;;;3.58;;
21663;SDS011;10993;52.510;13.456;2023-07-09T22:51:37;5.93;;;3.25;;
21663;SDS011;10993;52.510;13.456;2023-07-09T22:56:37;6.25;;;3.40;;
21663;SDS011;10993;52.510;13.456;2023-07-09T23:01:38;7.10;;;3.30;;
21663;SDS011;10993;52.510;13.456;2023-07-09T23:06:41;5.90;;;2.75;;
21663;SDS011;10993;52.510;13.456;2023-07-09T23:11:42;5.97;;;3.92;;
21663;SDS011;10993;52.510;13.456;2023-07-09T23:16:43;5.63;;;3.30;;
21663;SDS011;10993;52.510;13.456;2023-07-09T23:21:46;4.97;;;3.28;;
21663;SDS011;10993;52.510;13.456;2023-07-09T23:26:47;5.93;;;3.20;;
21663;SDS011;10993;52.510;13.456;2023-07-09T23:31:50;5.25;;;2.90;;
21663;SDS011;10993;52.510;13.456;2023-07-09T23:36:51;5.40;;;3.05;;
21663;SDS011;10993;52.510;13.456;2023-07-09T23:41:52;4.75;;;2.67;;
21663;SDS011;10993;52.510;13.456;2023-07-09T23:46:55;4.43;;;2.80;;
21663;SDS011;10993;52.510;13.456;2023-07-09T23:51:57;6.13;;;3.40;;
21663;SDS011;10993;52.510;13.456;2023-07-09T23:56:58;5.53;;;2.92;;
